Главная страница
METAR-TAF:

METAR-TAF

Аэропорты :

Мурманск, Россия

широта: 68-58N, долгота: 033-03E, высота над уровнем моря: 51 м

Текущие метеонаблюдения

Эта сводка был подготовлена 16 минут назад, в 21:00 UTC
Ветер 8 Узел от восточный
Температура 5°C
Влажность 93%
Давление 1016 hPa
Видимость 10 км и более
Нет облачности ниже 1500 м, и нет кучево-дождевой облачности

METAR: ULMM 132100Z 08004MPS CAVOK 05/04 Q1016 R13/090070 NOSIG RMK QFE755

Время: 00:16 (21:16 UTC)

Прогноз

Эта сводка был подготовлена 1 час и 26 минут назад, в 19:50 UTC
Прогноз действительный с 13-го 21 UTC до 14-го 21 UTC
Ветер 6 Узел от восточный с порывами до 17 Узел
Видимость 10 км и более
Отдельные облака на высоте 1600 фута
изменения
С 14-го 13 UTC до 14-го 15 UTC
Ветер 6 Узел от юго-юго-восточный

TAF: ULMM 131950Z 1321/1421 09003G09MPS 9999 SCT016 BECMG 1413/1415 16003MPS

Метеонаблюдения и прогнозы для более 4000 аэропортов (сводки METAR и TAF).

Имеющиеся станции представлены на карте желтыми и красными точками.

Чтобы увидеть название станции, наведите на нее мышь.

Затем щелкните, чтобы увидеть метеонаблюдения и метеопрогнозы.

Управление картой: чтобы увеличить масштаб, щелкните зеленые кнопки с черным крестиком; чтобы уменьшить масштаб, щелкните зеленую кнопку с тире; для просмотра соседних карт щелкайте зеленые стрелки.


METAR-TAF: